createdAt,value
2018-04-10T00:00:49.944Z,99644.35
2018-04-10T00:03:17.504Z,99644.44
2018-04-10T00:05:45.070Z,99641.84
2018-04-10T00:08:12.631Z,99633.98
2018-04-10T00:10:40.198Z,99640.13
2018-04-10T00:13:07.897Z,99632.39
2018-04-10T00:15:35.497Z,99635.05
2018-04-10T00:18:03.114Z,99626.89
2018-04-10T00:20:30.671Z,99625.34
2018-04-10T00:22:58.238Z,99629.19
2018-04-10T00:25:25.868Z,99624.75
2018-04-10T00:27:53.481Z,99622.47
2018-04-10T00:30:21.046Z,99617.73
2018-04-10T00:32:48.609Z,99620.52
2018-04-10T00:35:16.259Z,99620.42
2018-04-10T00:37:43.811Z,99617.73
2018-04-10T00:40:11.428Z,99622.44
2018-04-10T00:42:39.049Z,99622.52
2018-04-10T00:45:06.604Z,99618.07
2018-04-10T00:47:34.229Z,99617.05
2018-04-10T00:50:01.790Z,99610.04
2018-04-10T00:52:29.423Z,99608.09
2018-04-10T00:54:56.980Z,99601.62
2018-04-10T00:57:24.589Z,99612.21
2018-04-10T00:59:52.144Z,99611.52
2018-04-10T01:02:19.705Z,99620.86
2018-04-10T01:04:47.291Z,99615.88
2018-04-10T01:07:14.904Z,99610.86
2018-04-10T01:09:42.476Z,99609.76
2018-04-10T01:12:10.094Z,99615.42
2018-04-10T01:14:37.656Z,99611.30
2018-04-10T01:17:05.211Z,99608.64
2018-04-10T01:19:32.830Z,99613.52
2018-04-10T01:22:00.450Z,99614.95
2018-04-10T01:24:28.017Z,99609.53
2018-04-10T01:26:55.646Z,99609.20
2018-04-10T01:29:23.265Z,99604.37
2018-04-10T01:31:50.833Z,99611.52
2018-04-10T01:34:18.388Z,99608.17
2018-04-10T01:36:45.960Z,99607.30
2018-04-10T01:39:13.576Z,99611.23
2018-04-10T01:41:41.240Z,99609.66
2018-04-10T01:44:08.853Z,99613.05
2018-04-10T01:46:36.415Z,99607.44
2018-04-10T01:49:04.036Z,99610.35
2018-04-10T01:51:31.665Z,99611.58
2018-04-10T01:53:59.232Z,99598.11
2018-04-10T01:56:26.784Z,99605.20
2018-04-10T01:58:54.404Z,99596.87
2018-04-10T02:01:21.954Z,99599.19
2018-04-10T02:03:49.575Z,99598.44
2018-04-10T02:06:17.129Z,99596.66
2018-04-10T02:08:44.685Z,99585.33
2018-04-10T02:11:12.251Z,99586.52
2018-04-10T02:13:39.812Z,99596.58
2018-04-10T02:16:07.392Z,99593.75
2018-04-10T02:18:35.029Z,99590.30
2018-04-10T02:21:02.700Z,99584.03
2018-04-10T02:23:30.259Z,99591.12
2018-04-10T02:25:57.871Z,99593.97
2018-04-10T02:28:25.440Z,99584.33
2018-04-10T02:30:53.003Z,99576.11
2018-04-10T02:33:20.637Z,99578.66
2018-04-10T02:35:48.264Z,99580.20
2018-04-10T02:38:15.937Z,99574.21
2018-04-10T02:40:43.496Z,99571.70
2018-04-10T02:43:11.052Z,99576.66
2018-04-10T02:45:38.623Z,99572.52
2018-04-10T02:48:06.240Z,99579.41
2018-04-10T02:50:33.875Z,99579.41
2018-04-10T02:53:01.439Z,99578.14
2018-04-10T02:55:29.119Z,99578.56
2018-04-10T02:57:56.750Z,99582.27
2018-04-10T03:00:24.319Z,99581.25
2018-04-10T03:02:51.926Z,99581.97
2018-04-10T03:05:19.487Z,99581.50
2018-04-10T03:07:47.108Z,99583.30
2018-04-10T03:10:14.728Z,99583.45
2018-04-10T03:12:42.331Z,99592.11
2018-04-10T03:15:09.952Z,99588.83
2018-04-10T03:17:37.484Z,99584.58
2018-04-10T03:20:05.104Z,99596.95
2018-04-10T03:22:32.662Z,99593.21
2018-04-10T03:25:00.271Z,99593.66
2018-04-10T03:27:27.861Z,99597.63
2018-04-10T03:29:55.448Z,99602.91
2018-04-10T03:32:23.030Z,99607.17
2018-04-10T03:34:50.651Z,99623.23
2018-04-10T03:37:18.279Z,99618.03
2018-04-10T03:39:45.832Z,99614.63
2018-04-10T03:42:13.392Z,99610.02
2018-04-10T03:44:41.007Z,99622.83
2018-04-10T03:47:08.564Z,99619.06
2018-04-10T03:49:36.144Z,99623.66
2018-04-10T03:52:03.681Z,99622.16
2018-04-10T03:54:31.300Z,99623.16
2018-04-10T03:56:58.867Z,99625.98
2018-04-10T03:59:26.429Z,99628.73
2018-04-10T04:01:53.987Z,99627.06
2018-04-10T04:04:21.543Z,99630.51
2018-04-10T04:06:49.184Z,99635.77
2018-04-10T04:09:16.748Z,99622.88
2018-04-10T04:11:44.365Z,99628.81
2018-04-10T04:14:11.960Z,99624.72
2018-04-10T04:16:51.523Z,99630.42
2018-04-10T04:19:30.948Z,99635.94
2018-04-10T04:22:10.320Z,99631.71
2018-04-10T04:24:37.884Z,99639.01
2018-04-10T04:27:05.444Z,99651.72
2018-04-10T04:29:33.012Z,99647.41
2018-04-10T04:32:00.572Z,99653.10
2018-04-10T04:34:28.143Z,99660.78
2018-04-10T04:36:55.705Z,99659.09
2018-04-10T04:39:23.319Z,99657.05
2018-04-10T04:41:50.913Z,99654.91
2018-04-10T04:44:18.540Z,99648.55
2018-04-10T04:46:46.130Z,99649.67
2018-04-10T04:49:13.698Z,99655.82
2018-04-10T04:51:41.332Z,99646.73
2018-04-10T04:54:08.988Z,99648.33
2018-04-10T04:56:36.570Z,99651.91
2018-04-10T04:59:04.252Z,99650.06
2018-04-10T05:01:31.877Z,99656.05
2018-04-10T05:03:59.448Z,99652.28
2018-04-10T05:06:27.073Z,99641.64
2018-04-10T05:08:54.637Z,99645.54
2018-04-10T05:11:22.259Z,99639.50
2018-04-10T05:13:49.884Z,99653.58
2018-04-10T05:16:17.444Z,99659.09
2018-04-10T05:18:45.067Z,99659.67
2018-04-10T05:21:12.606Z,99660.05
2018-04-10T05:23:40.269Z,99654.92
2018-04-10T05:26:08.893Z,99651.19
2018-04-10T05:28:36.448Z,99643.87
2018-04-10T05:31:04.015Z,99647.58
2018-04-10T05:33:31.621Z,99647.70
2018-04-10T05:35:59.183Z,99652.44
2018-04-10T05:38:26.743Z,99648.87
2018-04-10T05:40:54.372Z,99643.80
2018-04-10T05:43:21.988Z,99640.88
2018-04-10T05:45:49.563Z,99637.44
2018-04-10T05:48:17.185Z,99641.00
2018-04-10T05:50:44.781Z,99637.95
2018-04-10T05:53:12.348Z,99651.27
2018-04-10T05:55:39.964Z,99641.17
2018-04-10T05:58:07.585Z,99647.00
2018-04-10T06:00:35.150Z,99645.16
2018-04-10T06:03:02.713Z,99653.65
2018-04-10T06:05:30.385Z,99659.96
2018-04-10T06:07:57.984Z,99655.45
2018-04-10T06:10:25.556Z,99659.83
2018-04-10T06:12:53.197Z,99657.86
2018-04-10T06:15:20.825Z,99657.63
2018-04-10T06:17:48.453Z,99650.05
2018-04-10T06:20:16.148Z,99655.98
2018-04-10T06:22:43.728Z,99654.20
2018-04-10T06:25:11.345Z,99654.04
2018-04-10T06:27:38.917Z,99656.38
2018-04-10T06:30:06.594Z,99654.64
2018-04-10T06:32:34.223Z,99661.88
2018-04-10T06:35:01.780Z,99655.48
2018-04-10T06:37:29.354Z,99654.26
2018-04-10T06:39:56.911Z,99661.09
2018-04-10T06:42:24.539Z,99665.80
2018-04-10T06:44:52.100Z,99664.71
2018-04-10T06:47:19.656Z,99658.09
2018-04-10T06:49:47.221Z,99658.17
2018-04-10T06:52:14.849Z,99655.23
2018-04-10T06:54:42.473Z,99663.46
2018-04-10T06:57:10.092Z,99654.67
2018-04-10T06:59:37.711Z,99655.90
2018-04-10T07:02:05.267Z,99656.52
2018-04-10T07:04:32.890Z,99654.16
2018-04-10T07:07:00.484Z,99655.25
2018-04-10T07:09:28.033Z,99655.81
2018-04-10T07:11:55.599Z,99644.13
2018-04-10T07:14:23.153Z,99641.20
2018-04-10T07:16:50.774Z,99641.74
2018-04-10T07:19:18.328Z,99638.44
2018-04-10T07:21:45.950Z,99640.34
2018-04-10T07:24:13.508Z,99643.63
2018-04-10T07:26:41.069Z,99638.97
2018-04-10T07:29:08.632Z,99638.72
2018-04-10T07:31:36.192Z,99648.48
2018-04-10T07:34:03.788Z,99650.28
2018-04-10T07:36:31.332Z,99649.69
2018-04-10T07:38:58.960Z,99644.25
2018-04-10T07:41:26.583Z,99642.55
2018-04-10T07:43:54.204Z,99642.14
2018-04-10T07:46:21.775Z,99647.78
2018-04-10T07:48:49.335Z,99645.67
2018-04-10T07:51:16.987Z,99643.29
2018-04-10T07:53:44.606Z,99639.58
2018-04-10T07:56:12.233Z,99634.67
2018-04-10T07:58:39.844Z,99635.39
2018-04-10T08:01:07.557Z,99633.12
2018-04-10T08:03:35.113Z,99632.97
2018-04-10T08:06:02.685Z,99622.63
2018-04-10T08:08:30.308Z,99628.58
2018-04-10T08:10:57.861Z,99630.82
2018-04-10T08:13:25.425Z,99629.44
2018-04-10T08:15:52.980Z,99632.60
2018-04-10T08:18:20.546Z,99623.45
2018-04-10T08:20:48.081Z,99626.16
2018-04-10T08:23:15.845Z,99632.33
2018-04-10T08:25:43.411Z,99630.27
2018-04-10T08:28:11.028Z,99622.02
2018-04-10T08:30:38.589Z,99620.17
2018-04-10T08:33:06.144Z,99619.87
2018-04-10T08:35:33.710Z,99617.97
2018-04-10T08:38:01.329Z,99618.66
2018-04-10T08:40:28.895Z,99613.28
2018-04-10T08:42:56.444Z,99610.66
2018-04-10T08:45:24.116Z,99601.19
2018-04-10T08:47:51.738Z,99593.64
2018-04-10T08:50:19.294Z,99595.27
2018-04-10T08:52:46.905Z,99594.28
2018-04-10T08:55:14.509Z,99584.66
2018-04-10T08:57:42.076Z,99579.14
2018-04-10T09:00:09.693Z,99584.90
2018-04-10T09:02:37.312Z,99580.70
2018-04-10T09:05:04.929Z,99581.73
2018-04-10T09:07:32.500Z,99581.58
2018-04-10T09:10:00.078Z,99577.77
2018-04-10T09:12:27.639Z,99571.40
2018-04-10T09:14:55.208Z,99570.36
2018-04-10T09:17:22.758Z,99571.21
2018-04-10T09:19:50.336Z,99560.80
2018-04-10T09:22:17.981Z,99559.94
2018-04-10T09:24:45.544Z,99552.54
2018-04-10T09:27:14.032Z,99551.86
2018-04-10T09:29:41.713Z,99549.38
2018-04-10T09:32:09.277Z,99546.69
2018-04-10T09:34:36.843Z,99544.27
2018-04-10T09:37:04.477Z,99540.83
2018-04-10T09:39:32.032Z,99541.11
2018-04-10T09:41:59.606Z,99540.10
2018-04-10T09:44:27.225Z,99540.31
2018-04-10T09:46:54.849Z,99538.80
2018-04-10T09:49:22.485Z,99538.48
2018-04-10T09:51:50.169Z,99535.90
2018-04-10T09:54:17.789Z,99535.39
2018-04-10T09:56:45.346Z,99527.81
2018-04-10T09:59:12.964Z,99533.90
2018-04-10T10:01:40.516Z,99537.16
2018-04-10T10:04:08.152Z,99531.68
2018-04-10T10:06:35.712Z,99526.69
2018-04-10T10:09:03.300Z,99537.05
2018-04-10T10:11:30.917Z,99531.45
2018-04-10T10:13:58.536Z,99528.36
2018-04-10T10:16:26.096Z,99521.59
2018-04-10T10:18:53.656Z,99518.13
2018-04-10T10:21:21.244Z,99515.72
2018-04-10T10:23:48.786Z,99516.70
2018-04-10T10:26:16.333Z,99506.06
2018-04-10T10:28:43.894Z,99505.95
2018-04-10T10:31:11.527Z,99508.81
2018-04-10T10:33:39.091Z,99509.73
2018-04-10T10:36:06.713Z,99507.19
2018-04-10T10:38:34.328Z,99500.56
2018-04-10T10:41:01.888Z,99497.85
2018-04-10T10:43:29.504Z,99491.04
2018-04-10T10:45:57.067Z,99491.84
2018-04-10T10:48:24.636Z,99487.33
2018-04-10T10:50:52.249Z,99484.68
2018-04-10T10:53:19.886Z,99490.17
2018-04-10T10:55:47.448Z,99484.81
2018-04-10T10:58:15.013Z,99481.16
2018-04-10T11:00:42.589Z,99477.70
2018-04-10T11:03:10.209Z,99470.19
2018-04-10T11:05:37.816Z,99474.91
2018-04-10T11:08:05.408Z,99464.61
2018-04-10T11:10:33.078Z,99465.70
2018-04-10T11:13:00.622Z,99462.42
2018-04-10T11:15:28.200Z,99461.11
2018-04-10T11:17:55.767Z,99450.94
2018-04-10T11:20:23.327Z,99456.33
2018-04-10T11:22:50.892Z,99446.70
2018-04-10T11:25:18.448Z,99443.63
2018-04-10T11:27:45.997Z,99446.74
2018-04-10T11:30:13.617Z,99432.28
2018-04-10T11:32:41.288Z,99428.16
2018-04-10T11:35:08.870Z,99433.65
2018-04-10T11:37:36.570Z,99422.89
2018-04-10T11:40:04.156Z,99424.05
2018-04-10T11:42:31.722Z,99424.27
2018-04-10T11:44:59.320Z,99413.39
2018-04-10T11:47:26.929Z,99412.41
2018-04-10T11:49:54.511Z,99415.45
2018-04-10T11:52:22.064Z,99419.66
2018-04-10T11:54:49.684Z,99418.78
2018-04-10T11:57:17.242Z,99419.15
2018-04-10T11:59:44.801Z,99409.70
2018-04-10T12:02:12.383Z,99400.39
2018-04-10T12:04:40.010Z,99401.62
2018-04-10T12:07:07.592Z,99393.16
2018-04-10T12:09:35.193Z,99388.93
2018-04-10T12:12:02.760Z,99394.97
2018-04-10T12:14:30.312Z,99375.17
2018-04-10T12:16:57.930Z,99371.95
2018-04-10T12:19:25.493Z,99371.95
2018-04-10T12:21:53.141Z,99372.44
2018-04-10T12:24:20.720Z,99376.16
2018-04-10T12:26:48.341Z,99375.02
2018-04-10T12:29:15.929Z,99371.13
2018-04-10T12:31:43.491Z,99369.82
2018-04-10T12:34:11.083Z,99352.92
2018-04-10T12:36:38.745Z,99363.52
2018-04-10T12:39:06.392Z,99355.47
2018-04-10T12:41:34.010Z,99351.89
2018-04-10T12:44:01.626Z,99356.43
2018-04-10T12:46:29.203Z,99352.86
2018-04-10T12:48:56.867Z,99351.75
2018-04-10T12:51:24.505Z,99342.26
2018-04-10T12:53:52.066Z,99338.73
2018-04-10T12:56:19.638Z,99336.77
2018-04-10T12:58:47.258Z,99324.99
2018-04-10T13:01:14.881Z,99326.77
2018-04-10T13:03:42.441Z,99326.27
2018-04-10T13:06:10.072Z,99317.25
2018-04-10T13:08:37.642Z,99318.03
2018-04-10T13:11:05.257Z,99308.95
2018-04-10T13:13:32.834Z,99312.35
2018-04-10T13:16:00.396Z,99312.84
2018-04-10T13:18:28.025Z,99310.81
2018-04-10T13:20:55.588Z,99303.23
2018-04-10T13:23:23.145Z,99303.80
2018-04-10T13:25:50.773Z,99296.83
2018-04-10T13:28:18.390Z,99295.11
2018-04-10T13:30:46.005Z,99296.91
2018-04-10T13:33:13.569Z,99296.63
2018-04-10T13:35:41.139Z,99303.83
2018-04-10T13:38:08.717Z,99302.53
2018-04-10T13:40:36.351Z,99298.63
2018-04-10T13:43:03.940Z,99294.23
2018-04-10T13:45:31.566Z,99292.09
2018-04-10T13:47:59.189Z,99294.30
2018-04-10T13:50:26.811Z,99288.84
2018-04-10T13:52:54.434Z,99285.66
2018-04-10T13:55:22.052Z,99276.20
2018-04-10T13:57:49.620Z,99278.80
2018-04-10T14:00:17.177Z,99272.36
2018-04-10T14:02:44.875Z,99275.64
2018-04-10T14:05:12.448Z,99271.34
2018-04-10T14:07:40.031Z,99262.31
2018-04-10T14:10:07.597Z,99261.09
2018-04-10T14:12:35.221Z,99255.11
2018-04-10T14:15:02.830Z,99244.92
2018-04-10T14:17:30.425Z,99245.45
2018-04-10T14:19:58.007Z,99247.22
2018-04-10T14:22:25.624Z,99248.75
2018-04-10T14:24:53.296Z,99244.01
2018-04-10T14:27:20.910Z,99246.51
2018-04-10T14:29:48.532Z,99248.97
2018-04-10T14:32:16.099Z,99246.06
2018-04-10T14:34:43.684Z,99253.94
2018-04-10T14:37:11.278Z,99250.42
2018-04-10T14:39:38.890Z,99248.70
2018-04-10T14:42:06.524Z,99248.55
2018-04-10T14:44:34.121Z,99247.98
2018-04-10T14:47:01.711Z,99250.41
2018-04-10T14:49:29.368Z,99246.74
2018-04-10T14:51:56.958Z,99244.91
2018-04-10T14:54:24.545Z,99248.64
2018-04-10T14:56:52.165Z,99245.94
2018-04-10T14:59:19.736Z,99250.56
2018-04-10T15:01:47.289Z,99260.94
2018-04-10T15:04:14.836Z,99257.98
2018-04-10T15:06:42.396Z,99260.34
2018-04-10T15:09:10.022Z,99259.64
2018-04-10T15:11:37.595Z,99253.74
2018-04-10T15:14:05.157Z,99248.73
2018-04-10T15:16:32.780Z,99251.16
2018-04-10T15:19:00.407Z,99252.39
2018-04-10T15:21:28.040Z,99254.58
2018-04-10T15:23:55.679Z,99256.16
2018-04-10T15:26:23.264Z,99258.00
2018-04-10T15:28:51.036Z,99263.83
2018-04-10T15:31:18.668Z,99259.33
2018-04-10T15:33:46.316Z,99265.91
2018-04-10T15:36:13.936Z,99271.19
2018-04-10T15:38:41.503Z,99274.38
2018-04-10T15:41:09.121Z,99273.53
2018-04-10T15:43:36.674Z,99276.89
2018-04-10T15:46:04.289Z,99274.28
2018-04-10T15:48:31.878Z,99276.27
2018-04-10T15:50:59.440Z,99284.22
2018-04-10T15:53:27.048Z,99280.57
2018-04-10T15:55:54.684Z,99282.53
2018-04-10T15:58:22.285Z,99285.02
2018-04-10T16:00:49.920Z,99299.28
2018-04-10T16:03:17.537Z,99296.32
2018-04-10T16:05:45.162Z,99288.39
2018-04-10T16:08:12.742Z,99296.70
2018-04-10T16:10:40.342Z,99283.98
2018-04-10T16:13:07.901Z,99281.02
2018-04-10T16:15:35.632Z,99278.33
2018-04-10T16:18:03.261Z,99287.76
2018-04-10T16:20:30.884Z,99285.16
2018-04-10T16:22:58.523Z,99284.23
2018-04-10T16:25:26.078Z,99276.45
2018-04-10T16:27:53.674Z,99281.25
2018-04-10T16:30:21.237Z,99279.20
2018-04-10T16:32:48.867Z,99279.91
2018-04-10T16:35:16.405Z,99282.03
2018-04-10T16:37:44.087Z,99280.80
2018-04-10T16:40:11.681Z,99277.52
2018-04-10T16:42:39.297Z,99273.97
2018-04-10T16:45:06.925Z,99273.96
2018-04-10T16:47:34.480Z,99269.16
2018-04-10T16:50:02.046Z,99277.80
2018-04-10T16:52:29.660Z,99272.19
2018-04-10T16:54:57.245Z,99267.94
2018-04-10T16:57:24.799Z,99276.45
2018-04-10T16:59:52.364Z,99269.58
2018-04-10T17:02:20.027Z,99263.41
2018-04-10T17:04:47.600Z,99262.97
2018-04-10T17:07:15.169Z,99262.97
2018-04-10T17:09:42.805Z,99267.33
2018-04-10T17:12:10.495Z,99269.11
2018-04-10T17:14:38.153Z,99269.67
2018-04-10T17:17:05.733Z,99266.38
2018-04-10T17:19:33.327Z,99266.07
2018-04-10T17:22:00.940Z,99261.93
2018-04-10T17:24:28.594Z,99265.07
2018-04-10T17:26:56.152Z,99270.45
2018-04-10T17:29:23.792Z,99269.89
2018-04-10T17:31:51.443Z,99269.86
2018-04-10T17:34:19.061Z,99273.25
2018-04-10T17:36:46.628Z,99275.70
2018-04-10T17:39:14.195Z,99282.52
2018-04-10T17:41:41.825Z,99290.77
2018-04-10T17:44:09.394Z,99292.53
2018-04-10T17:46:36.997Z,99291.36
2018-04-10T17:49:04.593Z,99295.58
2018-04-10T17:51:32.212Z,99295.71
2018-04-10T17:53:59.789Z,99305.30
2018-04-10T17:56:27.475Z,99302.18
2018-04-10T17:58:55.032Z,99314.23
2018-04-10T18:01:22.612Z,99308.90
2018-04-10T18:03:50.181Z,99316.03
2018-04-10T18:06:17.744Z,99312.70
2018-04-10T18:08:45.375Z,99312.70
2018-04-10T18:11:12.954Z,99320.36
2018-04-10T18:13:40.577Z,99322.23
2018-04-10T18:16:08.207Z,99326.06
2018-04-10T18:18:35.881Z,99334.44
2018-04-10T18:21:03.574Z,99339.20
2018-04-10T18:23:31.205Z,99335.06
2018-04-10T18:25:58.769Z,99346.03
2018-04-10T18:28:26.353Z,99349.53
2018-04-10T18:30:53.927Z,99342.56
2018-04-10T18:33:21.473Z,99347.55
2018-04-10T18:35:49.139Z,99344.99
2018-04-10T18:38:16.760Z,99350.22
2018-04-10T18:40:44.313Z,99346.66
2018-04-10T18:43:11.875Z,99345.77
2018-04-10T18:45:39.488Z,99348.58
2018-04-10T18:48:07.071Z,99348.19
2018-04-10T18:50:34.645Z,99338.22
2018-04-10T18:53:02.327Z,99340.55
2018-04-10T18:55:29.888Z,99334.84
2018-04-10T18:57:57.524Z,99340.72
2018-04-10T19:00:25.111Z,99338.86
2018-04-10T19:02:52.723Z,99328.97
2018-04-10T19:05:20.304Z,99331.53
2018-04-10T19:07:47.955Z,99337.27
2018-04-10T19:10:15.605Z,99342.64
2018-04-10T19:12:43.258Z,99349.17
2018-04-10T19:15:10.899Z,99348.16
2018-04-10T19:17:38.521Z,99344.27
2018-04-10T19:20:06.172Z,99340.45
2018-04-10T19:22:33.793Z,99335.52
2018-04-10T19:25:01.431Z,99341.80
2018-04-10T19:27:29.004Z,99340.70
2018-04-10T19:29:56.567Z,99345.80
2018-04-10T19:32:29.870Z,99340.03
2018-04-10T19:34:57.428Z,99350.61
2018-04-10T19:37:26.228Z,99360.16
2018-04-10T19:39:55.952Z,99363.20
2018-04-10T19:42:23.560Z,99342.99
2018-04-10T19:44:54.739Z,99305.78
2018-04-10T19:47:22.296Z,99353.55
2018-04-10T19:49:49.865Z,99357.59
2018-04-10T19:52:17.494Z,99358.56
2018-04-10T19:54:45.113Z,99362.67
2018-04-10T19:57:12.704Z,99363.14
2018-04-10T19:59:40.329Z,99372.86
2018-04-10T20:02:07.924Z,99378.27
2018-04-10T20:04:35.493Z,99374.48
2018-04-10T20:07:03.048Z,99380.45
2018-04-10T20:09:30.621Z,99383.48
2018-04-10T20:11:58.182Z,99387.91
2018-04-10T20:14:25.843Z,99378.72
2018-04-10T20:16:53.476Z,99379.73
2018-04-10T20:19:21.035Z,99378.84
2018-04-10T20:21:48.612Z,99374.26
2018-04-10T20:24:16.238Z,99371.16
2018-04-10T20:26:43.869Z,99364.40
2018-04-10T20:29:11.409Z,99360.70
2018-04-10T20:31:39.022Z,99371.47
2018-04-10T20:34:06.688Z,99366.80
2018-04-10T20:36:34.246Z,99369.48
2018-04-10T20:39:01.810Z,99373.40
2018-04-10T20:41:29.376Z,99374.05
2018-04-10T20:43:56.946Z,99373.61
2018-04-10T20:46:24.532Z,99381.95
2018-04-10T20:48:52.198Z,99390.60
2018-04-10T20:51:19.775Z,99385.86
2018-04-10T20:53:47.338Z,99385.16
2018-04-10T20:56:14.904Z,99383.41
2018-04-10T20:58:42.533Z,99385.57
2018-04-10T21:01:10.109Z,99379.11
2018-04-10T21:03:37.731Z,99380.86
2018-04-10T21:06:05.296Z,99388.62
2018-04-10T21:08:32.871Z,99389.80
2018-04-10T21:11:00.580Z,99381.13
2018-04-10T21:13:28.140Z,99379.78
2018-04-10T21:15:55.764Z,99372.45
2018-04-10T21:18:23.336Z,99380.52
2018-04-10T21:20:50.896Z,99380.48
2018-04-10T21:23:18.479Z,99379.28
2018-04-10T21:25:46.107Z,99374.91
2018-04-10T21:28:13.732Z,99378.75
2018-04-10T21:30:41.344Z,99381.31
2018-04-10T21:33:08.955Z,99377.64
2018-04-10T21:35:36.556Z,99390.30
2018-04-10T21:38:04.217Z,99394.19
2018-04-10T21:40:31.761Z,99398.86
2018-04-10T21:43:04.997Z,99397.02
2018-04-10T21:45:32.620Z,99393.14
2018-04-10T21:48:00.187Z,99394.61
2018-04-10T21:50:27.756Z,99388.58
2018-04-10T21:52:55.368Z,99385.41
2018-04-10T21:55:22.977Z,99388.23
2018-04-10T21:57:50.542Z,99383.66
2018-04-10T22:00:18.184Z,99385.39
2018-04-10T22:02:45.752Z,99391.48
2018-04-10T22:05:13.308Z,99397.22
2018-04-10T22:07:40.868Z,99397.93
2018-04-10T22:10:08.424Z,99396.49
2018-04-10T22:12:35.984Z,99385.88
2018-04-10T22:15:03.564Z,99388.99
2018-04-10T22:17:31.145Z,99376.65
2018-04-10T22:19:58.710Z,99372.22
2018-04-10T22:22:26.336Z,99373.23
2018-04-10T22:24:53.904Z,99355.80
2018-04-10T22:27:21.455Z,99356.79
2018-04-10T22:29:49.080Z,99347.69
2018-04-10T22:32:16.660Z,99348.93
2018-04-10T22:34:44.266Z,99348.33
2018-04-10T22:37:11.875Z,99352.38
2018-04-10T22:39:39.559Z,99347.39
2018-04-10T22:42:07.177Z,99346.75
2018-04-10T22:44:34.736Z,99346.45
2018-04-10T22:47:02.321Z,99346.50
2018-04-10T22:49:29.936Z,99341.64
2018-04-10T22:51:57.512Z,99338.39
2018-04-10T22:54:26.433Z,99340.70
2018-04-10T22:56:54.049Z,99342.25
2018-04-10T22:59:21.619Z,99342.62
2018-04-10T23:01:49.182Z,99334.78
2018-04-10T23:04:16.813Z,99331.79
2018-04-10T23:06:44.373Z,99334.50
2018-04-10T23:09:11.944Z,99330.78
2018-04-10T23:11:39.598Z,99341.53
2018-04-10T23:14:07.229Z,99346.82
2018-04-10T23:16:34.792Z,99346.86
2018-04-10T23:19:02.420Z,99349.23
2018-04-10T23:21:30.053Z,99346.26
2018-04-10T23:23:57.625Z,99341.77
2018-04-10T23:26:25.274Z,99337.09
2018-04-10T23:28:52.893Z,99343.27
2018-04-10T23:31:20.471Z,99333.92
2018-04-10T23:33:48.068Z,99332.33
2018-04-10T23:36:15.628Z,99333.91
2018-04-10T23:38:43.192Z,99327.98
2018-04-10T23:41:10.804Z,99333.48
2018-04-10T23:43:38.400Z,99330.47
2018-04-10T23:46:06.001Z,99330.39
2018-04-10T23:48:33.614Z,99324.40
2018-04-10T23:51:01.164Z,99318.62
2018-04-10T23:53:28.737Z,99315.82
2018-04-10T23:55:56.291Z,99310.48
2018-04-10T23:58:23.897Z,99308.73
